createdAt,value
2023-04-16T00:00:25.860Z,984.20
2023-04-16T00:01:25.862Z,984.20
2023-04-16T00:02:25.996Z,984.19
2023-04-16T00:03:25.945Z,984.24
2023-04-16T00:04:25.872Z,984.23
2023-04-16T00:05:25.839Z,984.20
2023-04-16T00:06:25.809Z,984.20
2023-04-16T00:07:25.805Z,984.19
2023-04-16T00:08:25.804Z,984.23
2023-04-16T00:09:25.783Z,984.22
2023-04-16T00:10:25.752Z,984.21
2023-04-16T00:11:25.798Z,984.23
2023-04-16T00:12:25.738Z,984.19
2023-04-16T00:13:25.744Z,984.22
2023-04-16T00:14:25.704Z,984.23
2023-04-16T00:15:25.737Z,984.23
2023-04-16T00:16:25.746Z,984.25
2023-04-16T00:17:25.717Z,984.28
2023-04-16T00:18:25.686Z,984.26
2023-04-16T00:19:25.681Z,984.24
2023-04-16T00:20:25.651Z,984.26
2023-04-16T00:21:25.829Z,984.26
2023-04-16T00:22:25.605Z,984.29
2023-04-16T00:23:25.631Z,984.29
2023-04-16T00:24:25.633Z,984.26
2023-04-16T00:25:25.627Z,984.24
2023-04-16T00:26:25.588Z,984.26
2023-04-16T00:27:25.643Z,984.31
2023-04-16T00:28:25.547Z,984.29
2023-04-16T00:29:25.562Z,984.29
2023-04-16T00:30:25.601Z,984.27
2023-04-16T00:31:25.618Z,984.28
2023-04-16T00:32:25.588Z,984.25
2023-04-16T00:33:25.529Z,984.28
2023-04-16T00:34:25.476Z,984.27
2023-04-16T00:35:25.477Z,984.29
2023-04-16T00:36:25.480Z,984.31
2023-04-16T00:37:25.476Z,984.31
2023-04-16T00:38:25.442Z,984.32
2023-04-16T00:39:25.444Z,984.32
2023-04-16T00:40:25.433Z,984.30
2023-04-16T00:41:25.404Z,984.31
2023-04-16T00:42:25.380Z,984.31
2023-04-16T00:43:25.418Z,984.30
2023-04-16T00:44:25.394Z,984.24
2023-04-16T00:45:25.392Z,984.29
2023-04-16T00:46:25.394Z,984.29
2023-04-16T00:47:25.411Z,984.27
2023-04-16T00:48:25.333Z,984.22
2023-04-16T00:49:25.366Z,984.22
2023-04-16T00:50:25.293Z,984.18
2023-04-16T00:51:25.300Z,984.22
2023-04-16T00:52:25.274Z,984.22
2023-04-16T00:53:25.286Z,984.15
2023-04-16T00:54:25.268Z,984.15
2023-04-16T00:55:25.269Z,984.11
2023-04-16T00:56:25.218Z,984.13
2023-04-16T00:57:25.239Z,984.17
2023-04-16T00:58:25.946Z,984.17
2023-04-16T00:59:25.216Z,984.20
2023-04-16T01:00:25.182Z,984.23
2023-04-16T01:01:25.191Z,984.19
2023-04-16T01:02:25.265Z,984.27
2023-04-16T01:03:25.302Z,984.30
2023-04-16T01:04:25.135Z,984.28
2023-04-16T01:05:25.164Z,984.31
2023-04-16T01:06:25.117Z,984.28
2023-04-16T01:07:25.116Z,984.27
2023-04-16T01:08:25.077Z,984.27
2023-04-16T01:09:25.123Z,984.24
2023-04-16T01:10:25.061Z,984.25
2023-04-16T01:11:25.057Z,984.28
2023-04-16T01:12:25.067Z,984.29
2023-04-16T01:13:25.041Z,984.31
2023-04-16T01:14:25.053Z,984.34
2023-04-16T01:15:25.015Z,984.34
2023-04-16T01:16:25.114Z,984.33
2023-04-16T01:17:25.013Z,984.35
2023-04-16T01:18:25.034Z,984.34
2023-04-16T01:19:25.830Z,984.32
2023-04-16T01:20:26.058Z,984.40
2023-04-16T01:21:24.952Z,984.38
2023-04-16T01:22:24.951Z,984.39
2023-04-16T01:23:24.962Z,984.40
2023-04-16T01:24:24.939Z,984.43
2023-04-16T01:25:24.919Z,984.48
2023-04-16T01:26:24.932Z,984.48
2023-04-16T01:27:24.891Z,984.43
2023-04-16T01:28:24.897Z,984.44
2023-04-16T01:29:24.861Z,984.44
2023-04-16T01:30:24.882Z,984.41
2023-04-16T01:31:24.882Z,984.47
2023-04-16T01:32:24.919Z,984.49
2023-04-16T01:33:24.829Z,984.50
2023-04-16T01:34:24.902Z,984.49
2023-04-16T01:35:24.778Z,984.54
2023-04-16T01:36:24.785Z,984.48
2023-04-16T01:37:24.771Z,984.55
2023-04-16T01:38:24.778Z,984.52
2023-04-16T01:39:24.743Z,984.58
2023-04-16T01:40:24.761Z,984.58
2023-04-16T01:41:24.726Z,984.60
2023-04-16T01:42:24.740Z,984.56
2023-04-16T01:43:24.702Z,984.61
2023-04-16T01:44:24.771Z,984.56
2023-04-16T01:45:24.697Z,984.59
2023-04-16T01:46:24.714Z,984.58
2023-04-16T01:47:24.763Z,984.56
2023-04-16T01:48:24.663Z,984.58
2023-04-16T01:49:24.621Z,984.57
2023-04-16T01:50:24.638Z,984.56
2023-04-16T01:51:25.047Z,984.63
2023-04-16T01:52:25.964Z,984.58
2023-04-16T01:53:24.653Z,984.60
2023-04-16T01:54:24.747Z,984.52
2023-04-16T01:55:24.573Z,984.56
2023-04-16T01:56:24.617Z,984.57
2023-04-16T01:57:24.555Z,984.60
2023-04-16T01:58:24.567Z,984.57
2023-04-16T01:59:24.525Z,984.55
2023-04-16T02:00:24.750Z,984.56
2023-04-16T02:01:24.602Z,984.62
2023-04-16T02:02:24.544Z,984.59
2023-04-16T02:03:24.603Z,984.59
2023-04-16T02:04:24.580Z,984.64
2023-04-16T02:05:24.493Z,984.65
2023-04-16T02:06:24.462Z,984.68
2023-04-16T02:07:24.487Z,984.66
2023-04-16T02:08:24.456Z,984.66
2023-04-16T02:09:24.525Z,984.60
2023-04-16T02:10:24.562Z,984.60
2023-04-16T02:11:24.404Z,984.58
2023-04-16T02:12:24.492Z,984.67
2023-04-16T02:13:24.397Z,984.65
2023-04-16T02:14:24.383Z,984.60
2023-04-16T02:15:24.404Z,984.67
2023-04-16T02:16:24.409Z,984.64
2023-04-16T02:17:24.462Z,984.63
2023-04-16T02:18:24.413Z,984.63
2023-04-16T02:19:24.326Z,984.62
2023-04-16T02:20:24.371Z,984.57
2023-04-16T02:21:24.276Z,984.58
2023-04-16T02:22:24.633Z,984.60
2023-04-16T02:23:24.259Z,984.61
2023-04-16T02:24:24.313Z,984.63
2023-04-16T02:25:24.225Z,984.59
2023-04-16T02:26:24.232Z,984.65
2023-04-16T02:27:24.196Z,984.63
2023-04-16T02:28:24.229Z,984.61
2023-04-16T02:29:24.172Z,984.61
2023-04-16T02:30:24.175Z,984.64
2023-04-16T02:31:24.201Z,984.61
2023-04-16T02:32:24.192Z,984.60
2023-04-16T02:33:24.126Z,984.60
2023-04-16T02:34:24.136Z,984.61
2023-04-16T02:35:24.125Z,984.58
2023-04-16T02:36:24.110Z,984.58
2023-04-16T02:37:24.083Z,984.62
2023-04-16T02:38:24.108Z,984.67
2023-04-16T02:39:24.101Z,984.64
2023-04-16T02:40:24.067Z,984.64
2023-04-16T02:41:24.047Z,984.63
2023-04-16T02:42:24.049Z,984.61
2023-04-16T02:43:24.021Z,984.62
2023-04-16T02:44:24.063Z,984.59
2023-04-16T02:45:24.007Z,984.59
2023-04-16T02:46:24.241Z,984.56
2023-04-16T02:47:24.041Z,984.58
2023-04-16T02:48:23.997Z,984.50
2023-04-16T02:49:23.955Z,984.56
2023-04-16T02:50:23.976Z,984.52
2023-04-16T02:51:23.981Z,984.52
2023-04-16T02:52:23.941Z,984.52
2023-04-16T02:53:23.908Z,984.51
2023-04-16T02:54:23.916Z,984.55
2023-04-16T02:55:23.901Z,984.56
2023-04-16T02:56:23.922Z,984.56
2023-04-16T02:57:23.858Z,984.57
2023-04-16T02:58:23.870Z,984.59
2023-04-16T02:59:23.877Z,984.61
2023-04-16T03:00:23.849Z,984.63
2023-04-16T03:01:23.847Z,984.61
2023-04-16T03:02:24.439Z,984.61
2023-04-16T03:03:23.858Z,984.62
2023-04-16T03:04:23.856Z,984.58
2023-04-16T03:05:23.797Z,984.55
2023-04-16T03:06:23.789Z,984.54
2023-04-16T03:07:23.753Z,984.54
2023-04-16T03:08:23.783Z,984.51
2023-04-16T03:09:23.731Z,984.53
2023-04-16T03:10:31.291Z,984.45
2023-04-16T03:11:23.699Z,984.41
2023-04-16T03:12:23.707Z,984.40
2023-04-16T03:13:23.673Z,984.39
2023-04-16T03:14:23.675Z,984.48
2023-04-16T03:15:23.653Z,984.50
2023-04-16T03:16:23.778Z,984.50
2023-04-16T03:17:23.643Z,984.50
2023-04-16T03:18:23.643Z,984.55
2023-04-16T03:19:23.605Z,984.53
2023-04-16T03:20:23.627Z,984.53
2023-04-16T03:21:23.617Z,984.56
2023-04-16T03:22:23.607Z,984.55
2023-04-16T03:23:23.564Z,984.54
2023-04-16T03:24:23.586Z,984.54
2023-04-16T03:25:23.542Z,984.56
2023-04-16T03:26:23.582Z,984.61
2023-04-16T03:27:23.514Z,984.56
2023-04-16T03:28:23.540Z,984.56
2023-04-16T03:29:23.493Z,984.60
2023-04-16T03:30:23.512Z,984.62
2023-04-16T03:31:23.545Z,984.68
2023-04-16T03:32:23.502Z,984.62
2023-04-16T03:33:23.471Z,984.63
2023-04-16T03:34:23.484Z,984.63
2023-04-16T03:35:23.417Z,984.62
2023-04-16T03:36:23.444Z,984.62
2023-04-16T03:37:23.409Z,984.58
2023-04-16T03:38:23.450Z,984.59
2023-04-16T03:39:23.369Z,984.56
2023-04-16T03:40:23.400Z,984.59
2023-04-16T03:41:23.357Z,984.59
2023-04-16T03:42:23.371Z,984.56
2023-04-16T03:43:23.342Z,984.55
2023-04-16T03:44:23.352Z,984.59
2023-04-16T03:45:23.334Z,984.60
2023-04-16T03:46:23.344Z,984.58
2023-04-16T03:47:23.303Z,984.62
2023-04-16T03:48:23.299Z,984.58
2023-04-16T03:49:23.295Z,984.61
2023-04-16T03:50:23.287Z,984.70
2023-04-16T03:51:23.247Z,984.66
2023-04-16T03:52:23.261Z,984.64
2023-04-16T03:53:23.222Z,984.69
2023-04-16T03:54:23.290Z,984.67
2023-04-16T03:55:23.197Z,984.70
2023-04-16T03:56:23.230Z,984.72
2023-04-16T03:57:23.170Z,984.70
2023-04-16T03:58:23.190Z,984.71
2023-04-16T03:59:23.175Z,984.74
2023-04-16T04:00:23.199Z,984.80
2023-04-16T04:01:23.139Z,984.75
2023-04-16T04:02:23.371Z,984.73
2023-04-16T04:03:23.309Z,984.73
2023-04-16T04:04:23.278Z,984.73
2023-04-16T04:05:23.102Z,984.71
2023-04-16T04:06:23.101Z,984.73
2023-04-16T04:07:23.092Z,984.72
2023-04-16T04:08:23.077Z,984.73
2023-04-16T04:09:23.033Z,984.75
2023-04-16T04:10:23.080Z,984.74
2023-04-16T04:11:23.027Z,984.76
2023-04-16T04:12:23.037Z,984.80
2023-04-16T04:13:23.007Z,984.78
2023-04-16T04:14:23.017Z,984.73
2023-04-16T04:15:23.003Z,984.78
2023-04-16T04:16:23.040Z,984.77
2023-04-16T04:17:22.975Z,984.75
2023-04-16T04:18:22.984Z,984.78
2023-04-16T04:19:22.934Z,984.75
2023-04-16T04:20:22.945Z,984.78
2023-04-16T04:21:22.939Z,984.75
2023-04-16T04:22:22.936Z,984.76
2023-04-16T04:23:22.902Z,984.79
2023-04-16T04:24:22.924Z,984.86
2023-04-16T04:25:22.869Z,984.82
2023-04-16T04:26:22.926Z,984.77
2023-04-16T04:27:22.853Z,984.77
2023-04-16T04:28:22.864Z,984.83
2023-04-16T04:29:22.832Z,984.80
2023-04-16T04:30:22.843Z,984.76
2023-04-16T04:31:22.832Z,984.75
2023-04-16T04:32:22.853Z,984.76
2023-04-16T04:33:22.788Z,984.72
2023-04-16T04:34:22.782Z,984.74
2023-04-16T04:35:22.761Z,984.71
2023-04-16T04:36:22.763Z,984.70
2023-04-16T04:37:22.748Z,984.73
2023-04-16T04:38:22.756Z,984.74
2023-04-16T04:39:22.700Z,984.77
2023-04-16T04:40:22.718Z,984.74
2023-04-16T04:41:22.686Z,984.73
2023-04-16T04:42:22.698Z,984.74
2023-04-16T04:43:22.700Z,984.73
2023-04-16T04:44:22.796Z,984.76
2023-04-16T04:45:22.642Z,984.77
2023-04-16T04:46:22.693Z,984.83
2023-04-16T04:47:22.712Z,984.83
2023-04-16T04:48:22.628Z,984.84
2023-04-16T04:49:22.580Z,984.88
2023-04-16T04:50:22.619Z,984.88
2023-04-16T04:51:22.561Z,984.94
2023-04-16T04:52:22.575Z,984.92
2023-04-16T04:53:22.553Z,984.92
2023-04-16T04:54:22.553Z,984.91
2023-04-16T04:55:22.513Z,984.94
2023-04-16T04:56:22.551Z,984.96
2023-04-16T04:57:22.493Z,984.97
2023-04-16T04:58:22.522Z,984.95
2023-04-16T04:59:22.478Z,984.89
2023-04-16T05:00:22.493Z,984.91
2023-04-16T05:01:22.514Z,984.88
2023-04-16T05:02:22.564Z,984.90
2023-04-16T05:03:22.605Z,984.88
2023-04-16T05:04:22.626Z,984.94
2023-04-16T05:05:22.505Z,984.98
2023-04-16T05:06:22.430Z,984.94
2023-04-16T05:07:22.393Z,984.94
2023-04-16T05:08:22.392Z,984.96
2023-04-16T05:09:22.371Z,984.98
2023-04-16T05:10:22.369Z,984.98
2023-04-16T05:11:22.341Z,985.04
2023-04-16T05:12:22.343Z,985.06
2023-04-16T05:13:22.351Z,985.04
2023-04-16T05:14:22.319Z,985.10
2023-04-16T05:15:22.289Z,985.08
2023-04-16T05:16:22.363Z,985.04
2023-04-16T05:17:22.299Z,985.07
2023-04-16T05:18:22.297Z,985.06
2023-04-16T05:19:22.248Z,985.15
2023-04-16T05:20:22.270Z,985.13
2023-04-16T05:21:22.226Z,985.17
2023-04-16T05:22:22.235Z,985.18
2023-04-16T05:23:22.431Z,985.15
2023-04-16T05:24:22.219Z,985.17
2023-04-16T05:25:22.198Z,985.19
2023-04-16T05:26:22.157Z,985.19
2023-04-16T05:27:22.185Z,985.18
2023-04-16T05:28:22.167Z,985.19
2023-04-16T05:29:22.181Z,985.22
2023-04-16T05:30:22.116Z,985.27
2023-04-16T05:31:22.234Z,985.24
2023-04-16T05:32:22.153Z,985.25
2023-04-16T05:33:22.125Z,985.27
2023-04-16T05:34:22.090Z,985.27
2023-04-16T05:35:22.094Z,985.28
2023-04-16T05:36:22.066Z,985.28
2023-04-16T05:37:22.084Z,985.28
2023-04-16T05:38:22.085Z,985.30
2023-04-16T05:39:22.047Z,985.32
2023-04-16T05:40:22.013Z,985.33
2023-04-16T05:41:22.019Z,985.31
2023-04-16T05:42:22.008Z,985.36
2023-04-16T05:43:21.999Z,985.40
2023-04-16T05:44:21.963Z,985.41
2023-04-16T05:45:21.982Z,985.46
2023-04-16T05:46:21.995Z,985.47
2023-04-16T05:47:21.999Z,985.47
2023-04-16T05:48:21.941Z,985.47
2023-04-16T05:49:21.935Z,985.50
2023-04-16T05:50:21.881Z,985.52
2023-04-16T05:51:21.917Z,985.53
2023-04-16T05:52:21.871Z,985.48
2023-04-16T05:53:21.880Z,985.51
2023-04-16T05:54:21.857Z,985.52
2023-04-16T05:55:21.876Z,985.52
2023-04-16T05:56:21.836Z,985.56
2023-04-16T05:57:21.833Z,985.52
2023-04-16T05:58:21.798Z,985.50
2023-04-16T05:59:22.628Z,985.54
2023-04-16T06:00:21.787Z,985.58
2023-04-16T06:01:21.838Z,985.57
2023-04-16T06:02:21.942Z,985.58
2023-04-16T06:03:21.844Z,985.57
2023-04-16T06:04:21.791Z,985.60
2023-04-16T06:05:22.613Z,985.64
2023-04-16T06:06:21.725Z,985.60
2023-04-16T06:07:21.751Z,985.61
2023-04-16T06:08:21.717Z,985.59
2023-04-16T06:09:21.722Z,985.59
2023-04-16T06:10:21.688Z,985.60
2023-04-16T06:11:21.714Z,985.58
2023-04-16T06:12:21.668Z,985.57
2023-04-16T06:13:21.686Z,985.60
2023-04-16T06:14:21.668Z,985.61
2023-04-16T06:15:21.678Z,985.61
2023-04-16T06:16:21.617Z,985.58
2023-04-16T06:17:21.616Z,985.60
2023-04-16T06:18:21.607Z,985.60
2023-04-16T06:19:21.617Z,985.61
2023-04-16T06:20:21.559Z,985.62
2023-04-16T06:21:21.558Z,985.64
2023-04-16T06:22:21.542Z,985.63
2023-04-16T06:23:21.546Z,985.61
2023-04-16T06:24:21.504Z,985.58
2023-04-16T06:25:21.515Z,985.58
2023-04-16T06:26:22.343Z,985.58
2023-04-16T06:27:21.539Z,985.57
2023-04-16T06:28:21.486Z,985.58
2023-04-16T06:29:25.837Z,985.60
2023-04-16T06:30:22.480Z,985.61
2023-04-16T06:31:21.502Z,985.64
2023-04-16T06:32:21.428Z,985.63
2023-04-16T06:33:21.441Z,985.62
2023-04-16T06:34:21.412Z,985.61
2023-04-16T06:35:21.418Z,985.63
2023-04-16T06:36:21.373Z,985.62
2023-04-16T06:37:21.392Z,985.65
2023-04-16T06:38:21.350Z,985.60
2023-04-16T06:39:21.370Z,985.63
2023-04-16T06:40:21.366Z,985.68
2023-04-16T06:41:21.341Z,985.66
2023-04-16T06:42:21.302Z,985.64
2023-04-16T06:43:21.312Z,985.68
2023-04-16T06:44:21.290Z,985.67
2023-04-16T06:45:21.309Z,985.70
2023-04-16T06:46:21.320Z,985.67
2023-04-16T06:47:21.321Z,985.70
2023-04-16T06:48:21.258Z,985.68
2023-04-16T06:49:21.250Z,985.68
2023-04-16T06:50:21.205Z,985.69
2023-04-16T06:51:21.295Z,985.71
2023-04-16T06:52:21.205Z,985.68
2023-04-16T06:53:21.205Z,985.72
2023-04-16T06:54:21.171Z,985.70
2023-04-16T06:55:21.188Z,985.75
2023-04-16T06:56:21.145Z,985.76
2023-04-16T06:57:21.164Z,985.75
2023-04-16T06:58:21.150Z,985.78
2023-04-16T06:59:21.150Z,985.72
2023-04-16T07:00:21.126Z,985.77
2023-04-16T07:01:21.173Z,985.75
2023-04-16T07:02:21.172Z,985.71
2023-04-16T07:03:21.238Z,985.78
2023-04-16T07:04:21.230Z,985.79
2023-04-16T07:05:21.112Z,985.80
2023-04-16T07:06:21.048Z,985.84
2023-04-16T07:07:21.062Z,985.81
2023-04-16T07:08:21.022Z,985.82
2023-04-16T07:09:21.063Z,985.84
2023-04-16T07:10:21.011Z,985.87
2023-04-16T07:11:21.018Z,985.85
2023-04-16T07:12:22.672Z,985.82
2023-04-16T07:13:20.979Z,985.85
2023-04-16T07:14:20.945Z,985.86
2023-04-16T07:15:21.054Z,985.85
2023-04-16T07:16:21.230Z,985.87
2023-04-16T07:17:20.942Z,985.87
2023-04-16T07:18:20.925Z,985.84
2023-04-16T07:19:20.924Z,985.88
2023-04-16T07:20:20.888Z,985.84
2023-04-16T07:21:20.910Z,985.86
2023-04-16T07:22:20.880Z,985.89
2023-04-16T07:23:20.872Z,985.84
2023-04-16T07:24:20.879Z,985.85
2023-04-16T07:25:20.864Z,985.88
2023-04-16T07:26:20.852Z,985.88
2023-04-16T07:27:20.857Z,985.82
2023-04-16T07:28:21.669Z,985.83
2023-04-16T07:29:27.397Z,985.88
2023-04-16T07:30:20.808Z,985.86
2023-04-16T07:31:20.846Z,985.88
2023-04-16T07:32:20.952Z,985.83
2023-04-16T07:33:20.781Z,985.80
2023-04-16T07:34:20.732Z,985.83
2023-04-16T07:35:20.754Z,985.87
2023-04-16T07:36:20.746Z,985.77
2023-04-16T07:37:20.754Z,985.85
2023-04-16T07:38:20.699Z,985.93
2023-04-16T07:39:20.727Z,985.83
2023-04-16T07:40:20.703Z,985.85
2023-04-16T07:41:20.766Z,985.86
2023-04-16T07:42:20.669Z,985.88
2023-04-16T07:43:20.672Z,985.91
2023-04-16T07:44:20.623Z,985.95
2023-04-16T07:45:20.664Z,985.93
2023-04-16T07:46:20.622Z,985.95
2023-04-16T07:47:20.641Z,985.95
2023-04-16T07:48:20.573Z,985.98
2023-04-16T07:49:28.156Z,986.01
2023-04-16T07:50:20.567Z,986.12
2023-04-16T07:51:20.573Z,986.09
2023-04-16T07:52:20.559Z,986.10
2023-04-16T07:53:20.549Z,986.06
2023-04-16T07:54:20.530Z,986.13
2023-04-16T07:55:20.522Z,986.12
2023-04-16T07:56:20.528Z,986.13
2023-04-16T07:57:20.525Z,986.15
2023-04-16T07:58:20.476Z,986.14
2023-04-16T07:59:23.556Z,986.19
2023-04-16T08:00:20.469Z,986.22
2023-04-16T08:01:20.485Z,986.22
2023-04-16T08:02:20.572Z,986.24
2023-04-16T08:03:20.583Z,986.24
2023-04-16T08:04:20.649Z,986.28
2023-04-16T08:05:20.456Z,986.27
2023-04-16T08:06:20.376Z,986.27
2023-04-16T08:07:20.396Z,986.30
2023-04-16T08:08:20.361Z,986.28
2023-04-16T08:09:20.387Z,986.27
2023-04-16T08:10:30.626Z,986.31
2023-04-16T08:11:20.344Z,986.28
2023-04-16T08:12:20.309Z,986.30
2023-04-16T08:13:20.323Z,986.35
2023-04-16T08:14:20.288Z,986.35
2023-04-16T08:15:29.131Z,986.34
2023-04-16T08:16:20.452Z,986.44
2023-04-16T08:17:20.297Z,986.38
2023-04-16T08:18:20.265Z,986.38
2023-04-16T08:19:20.258Z,986.42
2023-04-16T08:20:20.252Z,986.40
2023-04-16T08:21:29.008Z,986.44
2023-04-16T08:22:29.260Z,986.46
2023-04-16T08:23:20.243Z,986.49
2023-04-16T08:24:20.203Z,986.45
2023-04-16T08:25:20.206Z,986.48
2023-04-16T08:26:20.164Z,986.51
2023-04-16T08:27:20.495Z,986.51
2023-04-16T08:28:20.160Z,986.52
2023-04-16T08:29:20.162Z,986.51
2023-04-16T08:30:20.114Z,986.57
2023-04-16T08:31:20.176Z,986.53
2023-04-16T08:32:20.192Z,986.56
2023-04-16T08:33:20.143Z,986.57
2023-04-16T08:34:20.074Z,986.62
2023-04-16T08:35:27.661Z,986.56
2023-04-16T08:36:20.046Z,986.59
2023-04-16T08:37:20.061Z,986.59
2023-04-16T08:38:29.302Z,986.55
2023-04-16T08:39:20.041Z,986.58
2023-04-16T08:40:20.012Z,986.57
2023-04-16T08:41:20.039Z,986.62
2023-04-16T08:42:19.978Z,986.60
2023-04-16T08:43:27.602Z,986.60
2023-04-16T08:44:28.807Z,986.65
2023-04-16T08:45:19.970Z,986.62
2023-04-16T08:46:27.545Z,986.66
2023-04-16T08:47:19.960Z,986.63
2023-04-16T08:48:19.911Z,986.64
2023-04-16T08:49:19.925Z,986.70
2023-04-16T08:50:29.173Z,986.65
2023-04-16T08:51:19.917Z,986.65
2023-04-16T08:52:19.879Z,986.62
2023-04-16T08:53:19.896Z,986.66
2023-04-16T08:54:19.840Z,986.60
2023-04-16T08:55:19.855Z,986.61
2023-04-16T08:56:19.843Z,986.61
2023-04-16T08:57:19.855Z,986.65
2023-04-16T08:58:19.805Z,986.65
2023-04-16T08:59:19.814Z,986.73
2023-04-16T09:00:19.807Z,986.70
2023-04-16T09:01:19.910Z,986.70
2023-04-16T09:02:19.836Z,986.70
2023-04-16T09:03:20.136Z,986.68
2023-04-16T09:04:19.850Z,986.74
2023-04-16T09:05:19.765Z,986.76
2023-04-16T09:06:19.725Z,986.74
2023-04-16T09:07:19.753Z,986.72
2023-04-16T09:08:19.718Z,986.76
2023-04-16T09:09:19.724Z,986.79
2023-04-16T09:10:19.803Z,986.74
2023-04-16T09:11:19.727Z,986.75
2023-04-16T09:12:19.694Z,986.78
2023-04-16T09:13:19.684Z,986.79
2023-04-16T09:14:19.635Z,986.74
2023-04-16T09:15:19.662Z,986.79
2023-04-16T09:16:19.655Z,986.80
2023-04-16T09:17:19.671Z,986.75
2023-04-16T09:18:19.595Z,986.79
2023-04-16T09:19:19.630Z,986.78
2023-04-16T09:20:19.634Z,986.81
2023-04-16T09:21:20.608Z,986.80
2023-04-16T09:22:19.571Z,986.80
2023-04-16T09:23:19.544Z,986.83
2023-04-16T09:24:19.562Z,986.85
2023-04-16T09:25:19.517Z,986.83
2023-04-16T09:26:19.534Z,986.84
2023-04-16T09:27:19.491Z,986.90
2023-04-16T09:28:19.508Z,986.90
2023-04-16T09:29:19.466Z,986.93
2023-04-16T09:30:19.616Z,986.92
2023-04-16T09:31:19.597Z,986.95
2023-04-16T09:32:19.551Z,986.91
2023-04-16T09:33:19.476Z,986.97
2023-04-16T09:34:19.426Z,986.95
2023-04-16T09:35:19.400Z,987.00
2023-04-16T09:36:19.447Z,986.97
2023-04-16T09:37:19.367Z,986.99
2023-04-16T09:38:19.413Z,987.01
2023-04-16T09:39:19.358Z,987.04
2023-04-16T09:40:19.405Z,987.00
2023-04-16T09:41:19.337Z,987.02
2023-04-16T09:42:19.372Z,987.06
2023-04-16T09:43:19.340Z,987.07
2023-04-16T09:44:19.349Z,987.06
2023-04-16T09:45:19.292Z,987.05
2023-04-16T09:46:19.344Z,987.10
2023-04-16T09:47:19.297Z,987.07
2023-04-16T09:48:19.284Z,987.08
2023-04-16T09:49:19.237Z,987.09
2023-04-16T09:50:19.254Z,987.07
2023-04-16T09:51:19.760Z,987.11
2023-04-16T09:52:19.233Z,987.09
2023-04-16T09:53:19.191Z,987.10
2023-04-16T09:54:19.218Z,987.07
2023-04-16T09:55:19.207Z,987.09
2023-04-16T09:56:19.176Z,987.10
2023-04-16T09:57:19.151Z,987.11
2023-04-16T09:58:19.167Z,987.14
2023-04-16T09:59:19.161Z,987.13
2023-04-16T10:00:19.314Z,987.18
2023-04-16T10:01:19.134Z,987.16
2023-04-16T10:02:19.150Z,987.10
2023-04-16T10:03:19.192Z,987.12
2023-04-16T10:04:19.109Z,987.15
2023-04-16T10:05:19.077Z,987.17
2023-04-16T10:06:19.093Z,987.15
2023-04-16T10:07:19.042Z,987.17
2023-04-16T10:08:19.073Z,987.16
2023-04-16T10:09:19.018Z,987.17
2023-04-16T10:10:19.094Z,987.22
2023-04-16T10:11:19.846Z,987.23
2023-04-16T10:12:19.008Z,987.24
2023-04-16T10:13:18.970Z,987.27
2023-04-16T10:14:18.989Z,987.25
2023-04-16T10:15:19.295Z,987.28
2023-04-16T10:16:18.999Z,987.28
2023-04-16T10:17:18.926Z,987.30
2023-04-16T10:18:18.936Z,987.33
2023-04-16T10:19:18.899Z,987.26
2023-04-16T10:20:18.955Z,987.28
2023-04-16T10:21:18.882Z,987.36
2023-04-16T10:22:18.890Z,987.36
2023-04-16T10:23:18.882Z,987.36
2023-04-16T10:24:18.867Z,987.31
2023-04-16T10:25:18.909Z,987.29
2023-04-16T10:26:18.861Z,987.37
2023-04-16T10:27:18.827Z,987.33
2023-04-16T10:28:18.828Z,987.37
2023-04-16T10:29:18.790Z,987.33
2023-04-16T10:30:18.795Z,987.31
2023-04-16T10:31:18.789Z,987.32
2023-04-16T10:32:18.837Z,987.38
2023-04-16T10:33:18.757Z,987.37
2023-04-16T10:34:18.764Z,987.39
2023-04-16T10:35:18.722Z,987.41
2023-04-16T10:36:18.743Z,987.40
2023-04-16T10:37:18.707Z,987.41
2023-04-16T10:38:18.712Z,987.48
2023-04-16T10:39:18.676Z,987.42
2023-04-16T10:40:18.691Z,987.46
2023-04-16T10:41:18.657Z,987.49
2023-04-16T10:42:18.736Z,987.51
2023-04-16T10:43:18.642Z,987.52
2023-04-16T10:44:18.643Z,987.48
2023-04-16T10:45:18.604Z,987.46
2023-04-16T10:46:18.724Z,987.53
2023-04-16T10:47:18.613Z,987.50
2023-04-16T10:48:18.614Z,987.47
2023-04-16T10:49:18.572Z,987.47
2023-04-16T10:50:18.606Z,987.50
2023-04-16T10:51:18.535Z,987.48
2023-04-16T10:52:19.339Z,987.47
2023-04-16T10:53:18.833Z,987.52
2023-04-16T10:54:19.201Z,987.48
2023-04-16T10:55:18.481Z,987.58
2023-04-16T10:56:18.499Z,987.59
2023-04-16T10:57:18.506Z,987.58
2023-04-16T10:58:18.484Z,987.58
2023-04-16T10:59:18.450Z,987.57
2023-04-16T11:00:18.500Z,987.60
2023-04-16T11:01:18.446Z,987.58
2023-04-16T11:02:19.071Z,987.56
2023-04-16T11:03:18.527Z,987.57
2023-04-16T11:04:18.560Z,987.59
2023-04-16T11:05:18.393Z,987.60
2023-04-16T11:06:18.422Z,987.60
2023-04-16T11:07:18.366Z,987.53
2023-04-16T11:08:18.924Z,987.55
2023-04-16T11:09:18.331Z,987.55
2023-04-16T11:10:18.360Z,987.54
2023-04-16T11:11:18.342Z,987.53
2023-04-16T11:12:19.102Z,987.50
2023-04-16T11:13:19.116Z,987.54
2023-04-16T11:14:18.327Z,987.50
2023-04-16T11:15:18.263Z,987.55
2023-04-16T11:16:18.309Z,987.60
2023-04-16T11:17:18.241Z,987.56
2023-04-16T11:18:18.281Z,987.56
2023-04-16T11:19:18.247Z,987.53
2023-04-16T11:20:19.796Z,987.53
2023-04-16T11:21:18.211Z,987.50
2023-04-16T11:22:18.214Z,987.46
2023-04-16T11:23:18.393Z,987.45
2023-04-16T11:24:18.260Z,987.46
2023-04-16T11:25:18.160Z,987.46
2023-04-16T11:26:18.214Z,987.49
2023-04-16T11:27:18.132Z,987.44
2023-04-16T11:28:18.148Z,987.45
2023-04-16T11:29:18.134Z,987.38
2023-04-16T11:30:18.166Z,987.47
2023-04-16T11:31:18.109Z,987.43
2023-04-16T11:32:18.134Z,987.41
2023-04-16T11:33:18.872Z,987.43
2023-04-16T11:34:18.923Z,987.43
2023-04-16T11:35:18.081Z,987.44
2023-04-16T11:36:18.065Z,987.42
2023-04-16T11:37:18.024Z,987.44
2023-04-16T11:38:18.029Z,987.41
2023-04-16T11:39:18.017Z,987.40
2023-04-16T11:40:18.022Z,987.40
2023-04-16T11:41:17.983Z,987.40
2023-04-16T11:42:18.018Z,987.43
2023-04-16T11:43:17.953Z,987.44
2023-04-16T11:44:17.963Z,987.43
2023-04-16T11:45:17.950Z,987.43
2023-04-16T11:46:27.012Z,987.45
2023-04-16T11:47:18.998Z,987.45
2023-04-16T11:48:17.960Z,987.45
2023-04-16T11:49:17.909Z,987.46
2023-04-16T11:50:17.914Z,987.41
2023-04-16T11:51:17.858Z,987.44
2023-04-16T11:52:17.877Z,987.44
2023-04-16T11:53:17.887Z,987.46
2023-04-16T11:54:17.852Z,987.48
2023-04-16T11:55:17.872Z,987.46
2023-04-16T11:56:17.862Z,987.43
2023-04-16T11:57:17.799Z,987.46
2023-04-16T11:58:17.815Z,987.40
2023-04-16T11:59:17.764Z,987.41
2023-04-16T12:00:17.801Z,987.47
2023-04-16T12:01:17.794Z,987.49
2023-04-16T12:02:17.824Z,987.45
2023-04-16T12:03:18.195Z,987.45
2023-04-16T12:04:17.893Z,987.46
2023-04-16T12:05:17.768Z,987.44
2023-04-16T12:06:17.748Z,987.51
2023-04-16T12:07:17.686Z,987.48
2023-04-16T12:08:17.705Z,987.49
2023-04-16T12:09:17.724Z,987.49
2023-04-16T12:10:17.792Z,987.52
2023-04-16T12:11:17.690Z,987.47
2023-04-16T12:12:17.662Z,987.46
2023-04-16T12:13:17.667Z,987.46
2023-04-16T12:14:17.655Z,987.48
2023-04-16T12:15:17.609Z,987.48
2023-04-16T12:16:18.584Z,987.50
2023-04-16T12:17:17.610Z,987.51
2023-04-16T12:18:17.621Z,987.51
2023-04-16T12:19:17.660Z,987.51
2023-04-16T12:20:17.659Z,987.56
2023-04-16T12:21:17.599Z,987.53
2023-04-16T12:22:17.585Z,987.49
2023-04-16T12:23:18.301Z,987.48
2023-04-16T12:24:17.538Z,987.49
2023-04-16T12:25:17.699Z,987.49
2023-04-16T12:26:18.505Z,987.49
2023-04-16T12:27:17.577Z,987.50
2023-04-16T12:28:18.202Z,987.47